sensor_id;sensor_type;location;lat;lon;timestamp;P1;durP1;ratioP1;P2;durP2;ratioP2
24751;SDS011;27246;52.376;4.628;2022-12-24T00:03:05;24.33;;;6.82;;
24751;SDS011;27246;52.376;4.628;2022-12-24T00:08:07;24.48;;;6.05;;
24751;SDS011;27246;52.376;4.628;2022-12-24T00:13:08;30.58;;;5.93;;
24751;SDS011;27246;52.376;4.628;2022-12-24T00:18:10;26.17;;;6.20;;
24751;SDS011;27246;52.376;4.628;2022-12-24T00:23:13;28.58;;;6.10;;
24751;SDS011;27246;52.376;4.628;2022-12-24T00:28:15;22.13;;;6.40;;
24751;SDS011;27246;52.376;4.628;2022-12-24T00:33:17;27.98;;;5.57;;
24751;SDS011;27246;52.376;4.628;2022-12-24T00:38:24;22.65;;;6.95;;
24751;SDS011;27246;52.376;4.628;2022-12-24T00:43:27;25.30;;;6.40;;
24751;SDS011;27246;52.376;4.628;2022-12-24T00:48:30;31.27;;;6.88;;
24751;SDS011;27246;52.376;4.628;2022-12-24T00:53:32;30.45;;;6.53;;
24751;SDS011;27246;52.376;4.628;2022-12-24T00:58:34;24.17;;;5.32;;
24751;SDS011;27246;52.376;4.628;2022-12-24T01:03:36;29.45;;;5.78;;
24751;SDS011;27246;52.376;4.628;2022-12-24T01:08:38;27.50;;;6.32;;
24751;SDS011;27246;52.376;4.628;2022-12-24T01:13:40;29.90;;;6.15;;
24751;SDS011;27246;52.376;4.628;2022-12-24T01:18:42;26.20;;;5.63;;
24751;SDS011;27246;52.376;4.628;2022-12-24T01:23:44;27.38;;;6.13;;
24751;SDS011;27246;52.376;4.628;2022-12-24T01:28:46;26.40;;;5.43;;
24751;SDS011;27246;52.376;4.628;2022-12-24T01:33:48;28.20;;;5.97;;
24751;SDS011;27246;52.376;4.628;2022-12-24T01:38:50;32.83;;;7.13;;
24751;SDS011;27246;52.376;4.628;2022-12-24T01:43:52;30.52;;;5.57;;
24751;SDS011;27246;52.376;4.628;2022-12-24T01:48:59;28.63;;;5.95;;
24751;SDS011;27246;52.376;4.628;2022-12-24T01:54:08;36.83;;;6.13;;
24751;SDS011;27246;52.376;4.628;2022-12-24T01:59:18;24.48;;;7.13;;
24751;SDS011;27246;52.376;4.628;2022-12-24T02:04:42;33.10;;;7.05;;
24751;SDS011;27246;52.376;4.628;2022-12-24T02:09:53;25.45;;;6.43;;
24751;SDS011;27246;52.376;4.628;2022-12-24T02:14:57;28.23;;;5.72;;
24751;SDS011;27246;52.376;4.628;2022-12-24T02:30:40;30.70;;;7.30;;
24751;SDS011;27246;52.376;4.628;2022-12-24T02:35:47;31.98;;;7.32;;
24751;SDS011;27246;52.376;4.628;2022-12-24T02:40:55;29.95;;;6.57;;
24751;SDS011;27246;52.376;4.628;2022-12-24T02:46:04;35.17;;;7.57;;
24751;SDS011;27246;52.376;4.628;2022-12-24T02:51:09;25.45;;;6.25;;
24751;SDS011;27246;52.376;4.628;2022-12-24T02:56:34;25.25;;;5.68;;
24751;SDS011;27246;52.376;4.628;2022-12-24T03:12:27;26.35;;;6.25;;
24751;SDS011;27246;52.376;4.628;2022-12-24T03:17:33;34.15;;;7.72;;
24751;SDS011;27246;52.376;4.628;2022-12-24T03:22:38;39.55;;;6.18;;
24751;SDS011;27246;52.376;4.628;2022-12-24T03:27:40;28.58;;;4.82;;
24751;SDS011;27246;52.376;4.628;2022-12-24T03:32:43;26.38;;;5.90;;
24751;SDS011;27246;52.376;4.628;2022-12-24T03:37:46;25.33;;;6.07;;
24751;SDS011;27246;52.376;4.628;2022-12-24T03:42:48;36.15;;;7.05;;
24751;SDS011;27246;52.376;4.628;2022-12-24T03:47:50;22.98;;;5.60;;
24751;SDS011;27246;52.376;4.628;2022-12-24T03:52:53;27.85;;;5.47;;
24751;SDS011;27246;52.376;4.628;2022-12-24T03:57:55;21.73;;;5.60;;
24751;SDS011;27246;52.376;4.628;2022-12-24T04:02:57;22.90;;;5.20;;
24751;SDS011;27246;52.376;4.628;2022-12-24T04:07:59;23.33;;;5.03;;
24751;SDS011;27246;52.376;4.628;2022-12-24T04:13:01;29.50;;;4.93;;
24751;SDS011;27246;52.376;4.628;2022-12-24T04:18:02;28.10;;;4.90;;
24751;SDS011;27246;52.376;4.628;2022-12-24T04:23:05;21.67;;;5.47;;
24751;SDS011;27246;52.376;4.628;2022-12-24T04:28:06;29.33;;;4.97;;
24751;SDS011;27246;52.376;4.628;2022-12-24T04:33:08;33.30;;;7.63;;
24751;SDS011;27246;52.376;4.628;2022-12-24T04:38:11;27.88;;;5.43;;
24751;SDS011;27246;52.376;4.628;2022-12-24T04:43:13;32.45;;;5.63;;
24751;SDS011;27246;52.376;4.628;2022-12-24T04:48:15;20.98;;;4.65;;
24751;SDS011;27246;52.376;4.628;2022-12-24T04:53:17;29.50;;;6.32;;
24751;SDS011;27246;52.376;4.628;2022-12-24T04:58:18;24.17;;;6.20;;
24751;SDS011;27246;52.376;4.628;2022-12-24T05:03:20;30.77;;;6.03;;
24751;SDS011;27246;52.376;4.628;2022-12-24T05:08:26;23.90;;;5.07;;
24751;SDS011;27246;52.376;4.628;2022-12-24T05:13:28;25.02;;;5.35;;
24751;SDS011;27246;52.376;4.628;2022-12-24T05:18:42;23.58;;;4.88;;
24751;SDS011;27246;52.376;4.628;2022-12-24T05:23:45;23.35;;;5.95;;
24751;SDS011;27246;52.376;4.628;2022-12-24T05:29:08;28.85;;;7.20;;
24751;SDS011;27246;52.376;4.628;2022-12-24T05:34:13;24.80;;;5.68;;
24751;SDS011;27246;52.376;4.628;2022-12-24T05:39:16;27.58;;;6.00;;
24751;SDS011;27246;52.376;4.628;2022-12-24T05:44:19;32.88;;;6.60;;
24751;SDS011;27246;52.376;4.628;2022-12-24T05:49:21;28.45;;;5.30;;
24751;SDS011;27246;52.376;4.628;2022-12-24T05:54:23;34.47;;;6.15;;
24751;SDS011;27246;52.376;4.628;2022-12-24T05:59:24;32.20;;;6.38;;
24751;SDS011;27246;52.376;4.628;2022-12-24T06:04:28;27.17;;;5.35;;
24751;SDS011;27246;52.376;4.628;2022-12-24T06:09:30;27.33;;;5.97;;
24751;SDS011;27246;52.376;4.628;2022-12-24T06:14:32;29.70;;;6.80;;
24751;SDS011;27246;52.376;4.628;2022-12-24T06:19:34;25.83;;;6.32;;
24751;SDS011;27246;52.376;4.628;2022-12-24T06:24:36;23.17;;;6.63;;
24751;SDS011;27246;52.376;4.628;2022-12-24T06:29:37;26.98;;;6.13;;
24751;SDS011;27246;52.376;4.628;2022-12-24T06:34:39;33.55;;;6.45;;
24751;SDS011;27246;52.376;4.628;2022-12-24T06:39:41;37.75;;;7.18;;
24751;SDS011;27246;52.376;4.628;2022-12-24T06:44:43;26.92;;;6.00;;
24751;SDS011;27246;52.376;4.628;2022-12-24T06:49:45;32.47;;;6.50;;
24751;SDS011;27246;52.376;4.628;2022-12-24T06:54:47;25.92;;;6.93;;
24751;SDS011;27246;52.376;4.628;2022-12-24T06:59:49;33.28;;;5.80;;
24751;SDS011;27246;52.376;4.628;2022-12-24T07:04:51;30.65;;;8.00;;
24751;SDS011;27246;52.376;4.628;2022-12-24T07:09:54;27.35;;;5.50;;
24751;SDS011;27246;52.376;4.628;2022-12-24T07:14:56;37.78;;;6.88;;
24751;SDS011;27246;52.376;4.628;2022-12-24T07:20:01;24.60;;;6.25;;
24751;SDS011;27246;52.376;4.628;2022-12-24T07:25:07;34.08;;;6.60;;
24751;SDS011;27246;52.376;4.628;2022-12-24T07:30:13;28.05;;;6.78;;
24751;SDS011;27246;52.376;4.628;2022-12-24T07:35:16;33.83;;;6.57;;
24751;SDS011;27246;52.376;4.628;2022-12-24T07:40:18;28.10;;;6.38;;
24751;SDS011;27246;52.376;4.628;2022-12-24T07:45:23;32.95;;;6.57;;
24751;SDS011;27246;52.376;4.628;2022-12-24T07:50:27;23.98;;;6.43;;
24751;SDS011;27246;52.376;4.628;2022-12-24T07:55:29;24.20;;;5.63;;
24751;SDS011;27246;52.376;4.628;2022-12-24T08:00:31;35.08;;;7.43;;
24751;SDS011;27246;52.376;4.628;2022-12-24T08:05:35;33.60;;;7.82;;
24751;SDS011;27246;52.376;4.628;2022-12-24T08:10:48;27.83;;;6.43;;
24751;SDS011;27246;52.376;4.628;2022-12-24T08:15:51;31.25;;;6.22;;
24751;SDS011;27246;52.376;4.628;2022-12-24T08:20:53;26.67;;;5.97;;
24751;SDS011;27246;52.376;4.628;2022-12-24T08:25:55;32.97;;;7.22;;
24751;SDS011;27246;52.376;4.628;2022-12-24T08:30:57;36.78;;;8.15;;
24751;SDS011;27246;52.376;4.628;2022-12-24T08:36:00;28.88;;;6.25;;
24751;SDS011;27246;52.376;4.628;2022-12-24T08:41:03;23.75;;;5.55;;
24751;SDS011;27246;52.376;4.628;2022-12-24T08:46:05;30.88;;;5.60;;
24751;SDS011;27246;52.376;4.628;2022-12-24T08:51:08;30.27;;;6.70;;
24751;SDS011;27246;52.376;4.628;2022-12-24T08:56:11;26.70;;;5.78;;
24751;SDS011;27246;52.376;4.628;2022-12-24T09:01:17;29.27;;;6.38;;
24751;SDS011;27246;52.376;4.628;2022-12-24T09:06:20;30.65;;;6.13;;
24751;SDS011;27246;52.376;4.628;2022-12-24T09:11:24;26.80;;;5.28;;
24751;SDS011;27246;52.376;4.628;2022-12-24T09:16:26;29.48;;;7.47;;
24751;SDS011;27246;52.376;4.628;2022-12-24T09:21:28;30.10;;;7.30;;
24751;SDS011;27246;52.376;4.628;2022-12-24T09:26:30;31.27;;;6.30;;
24751;SDS011;27246;52.376;4.628;2022-12-24T09:31:34;40.00;;;7.95;;
24751;SDS011;27246;52.376;4.628;2022-12-24T09:36:37;31.20;;;6.75;;
24751;SDS011;27246;52.376;4.628;2022-12-24T09:46:52;27.85;;;6.47;;
24751;SDS011;27246;52.376;4.628;2022-12-24T09:52:09;25.25;;;6.18;;
24751;SDS011;27246;52.376;4.628;2022-12-24T10:09:51;27.55;;;6.28;;
24751;SDS011;27246;52.376;4.628;2022-12-24T10:31:11;25.30;;;5.45;;
24751;SDS011;27246;52.376;4.628;2022-12-24T10:36:19;26.17;;;6.20;;
24751;SDS011;27246;52.376;4.628;2022-12-24T10:41:25;19.23;;;5.22;;
24751;SDS011;27246;52.376;4.628;2022-12-24T10:46:34;37.28;;;9.13;;
24751;SDS011;27246;52.376;4.628;2022-12-24T10:51:40;27.25;;;5.43;;
24751;SDS011;27246;52.376;4.628;2022-12-24T10:56:49;25.98;;;5.63;;
24751;SDS011;27246;52.376;4.628;2022-12-24T11:01:56;19.08;;;5.40;;
24751;SDS011;27246;52.376;4.628;2022-12-24T11:07:04;25.83;;;6.22;;
24751;SDS011;27246;52.376;4.628;2022-12-24T11:18:12;19.20;;;4.32;;
24751;SDS011;27246;52.376;4.628;2022-12-24T11:23:15;22.52;;;6.07;;
24751;SDS011;27246;52.376;4.628;2022-12-24T11:28:19;18.17;;;4.78;;
24751;SDS011;27246;52.376;4.628;2022-12-24T11:33:27;24.58;;;3.92;;
24751;SDS011;27246;52.376;4.628;2022-12-24T11:38:31;28.60;;;4.93;;
24751;SDS011;27246;52.376;4.628;2022-12-24T11:43:42;22.85;;;4.70;;
24751;SDS011;27246;52.376;4.628;2022-12-24T11:48:49;29.33;;;6.10;;
24751;SDS011;27246;52.376;4.628;2022-12-24T11:54:13;24.10;;;4.75;;
24751;SDS011;27246;52.376;4.628;2022-12-24T11:59:42;14.45;;;4.05;;
24751;SDS011;27246;52.376;4.628;2022-12-24T12:04:46;19.00;;;4.00;;
24751;SDS011;27246;52.376;4.628;2022-12-24T12:15:20;25.02;;;5.20;;
24751;SDS011;27246;52.376;4.628;2022-12-24T12:20:33;24.40;;;4.07;;
24751;SDS011;27246;52.376;4.628;2022-12-24T12:25:54;20.55;;;3.95;;
24751;SDS011;27246;52.376;4.628;2022-12-24T12:36:23;26.05;;;5.20;;
24751;SDS011;27246;52.376;4.628;2022-12-24T12:57:23;18.67;;;4.38;;
24751;SDS011;27246;52.376;4.628;2022-12-24T13:24:14;26.63;;;5.03;;
24751;SDS011;27246;52.376;4.628;2022-12-24T13:34:42;22.83;;;5.60;;
24751;SDS011;27246;52.376;4.628;2022-12-24T13:40:12;20.80;;;5.20;;
24751;SDS011;27246;52.376;4.628;2022-12-24T14:01:38;19.73;;;5.07;;
24751;SDS011;27246;52.376;4.628;2022-12-24T14:06:43;25.67;;;6.28;;
24751;SDS011;27246;52.376;4.628;2022-12-24T14:17:12;22.98;;;5.10;;
24751;SDS011;27246;52.376;4.628;2022-12-24T14:22:42;23.75;;;5.63;;
24751;SDS011;27246;52.376;4.628;2022-12-24T14:27:48;22.88;;;4.60;;
24751;SDS011;27246;52.376;4.628;2022-12-24T14:32:54;21.23;;;5.20;;
24751;SDS011;27246;52.376;4.628;2022-12-24T14:38:01;26.10;;;5.00;;
24751;SDS011;27246;52.376;4.628;2022-12-24T14:43:10;27.08;;;5.85;;
24751;SDS011;27246;52.376;4.628;2022-12-24T14:54:09;31.88;;;6.47;;
24751;SDS011;27246;52.376;4.628;2022-12-24T14:59:32;32.17;;;5.97;;
24751;SDS011;27246;52.376;4.628;2022-12-24T15:05:01;27.00;;;6.47;;
24751;SDS011;27246;52.376;4.628;2022-12-24T15:10:04;24.85;;;6.15;;
24751;SDS011;27246;52.376;4.628;2022-12-24T15:15:21;19.20;;;5.85;;
24751;SDS011;27246;52.376;4.628;2022-12-24T15:20:24;31.58;;;5.97;;
24751;SDS011;27246;52.376;4.628;2022-12-24T15:25:31;23.45;;;5.78;;
24751;SDS011;27246;52.376;4.628;2022-12-24T15:30:33;28.08;;;7.68;;
24751;SDS011;27246;52.376;4.628;2022-12-24T15:40:50;22.08;;;6.13;;
24751;SDS011;27246;52.376;4.628;2022-12-24T15:45:52;18.08;;;6.40;;
24751;SDS011;27246;52.376;4.628;2022-12-24T15:50:56;23.05;;;7.13;;
24751;SDS011;27246;52.376;4.628;2022-12-24T16:06:15;26.83;;;8.82;;
24751;SDS011;27246;52.376;4.628;2022-12-24T16:11:21;33.22;;;9.50;;
24751;SDS011;27246;52.376;4.628;2022-12-24T16:22:02;26.92;;;9.23;;
24751;SDS011;27246;52.376;4.628;2022-12-24T16:27:25;23.52;;;9.98;;
24751;SDS011;27246;52.376;4.628;2022-12-24T16:32:31;29.88;;;8.43;;
24751;SDS011;27246;52.376;4.628;2022-12-24T16:37:36;27.13;;;8.35;;
24751;SDS011;27246;52.376;4.628;2022-12-24T16:42:38;23.05;;;8.63;;
24751;SDS011;27246;52.376;4.628;2022-12-24T16:48:04;31.42;;;11.90;;
24751;SDS011;27246;52.376;4.628;2022-12-24T16:53:08;35.90;;;14.57;;
24751;SDS011;27246;52.376;4.628;2022-12-24T16:58:18;31.90;;;12.50;;
24751;SDS011;27246;52.376;4.628;2022-12-24T17:03:21;36.85;;;13.32;;
24751;SDS011;27246;52.376;4.628;2022-12-24T17:08:23;30.10;;;15.98;;
24751;SDS011;27246;52.376;4.628;2022-12-24T17:13:24;30.80;;;15.82;;
24751;SDS011;27246;52.376;4.628;2022-12-24T17:18:34;32.30;;;11.20;;
24751;SDS011;27246;52.376;4.628;2022-12-24T17:23:45;22.40;;;11.98;;
24751;SDS011;27246;52.376;4.628;2022-12-24T17:28:47;23.88;;;11.10;;
24751;SDS011;27246;52.376;4.628;2022-12-24T17:33:54;31.92;;;15.90;;
24751;SDS011;27246;52.376;4.628;2022-12-24T17:38:58;36.78;;;17.50;;
24751;SDS011;27246;52.376;4.628;2022-12-24T17:44:00;36.63;;;15.15;;
24751;SDS011;27246;52.376;4.628;2022-12-24T17:49:02;30.85;;;13.30;;
24751;SDS011;27246;52.376;4.628;2022-12-24T17:54:04;32.15;;;15.05;;
24751;SDS011;27246;52.376;4.628;2022-12-24T17:59:06;34.08;;;12.48;;
24751;SDS011;27246;52.376;4.628;2022-12-24T18:04:09;34.05;;;13.68;;
24751;SDS011;27246;52.376;4.628;2022-12-24T18:09:11;43.40;;;19.27;;
24751;SDS011;27246;52.376;4.628;2022-12-24T18:14:12;35.72;;;14.70;;
24751;SDS011;27246;52.376;4.628;2022-12-24T18:19:15;38.92;;;18.35;;
24751;SDS011;27246;52.376;4.628;2022-12-24T18:24:18;36.25;;;14.88;;
24751;SDS011;27246;52.376;4.628;2022-12-24T18:29:20;33.15;;;16.70;;
24751;SDS011;27246;52.376;4.628;2022-12-24T18:34:22;45.03;;;17.80;;
24751;SDS011;27246;52.376;4.628;2022-12-24T18:39:24;38.05;;;17.83;;
24751;SDS011;27246;52.376;4.628;2022-12-24T18:44:28;33.60;;;20.13;;
24751;SDS011;27246;52.376;4.628;2022-12-24T18:49:30;37.90;;;19.70;;
24751;SDS011;27246;52.376;4.628;2022-12-24T18:54:35;31.80;;;16.88;;
24751;SDS011;27246;52.376;4.628;2022-12-24T18:59:38;36.60;;;16.98;;
24751;SDS011;27246;52.376;4.628;2022-12-24T19:04:40;33.25;;;16.02;;
24751;SDS011;27246;52.376;4.628;2022-12-24T19:09:42;33.92;;;13.95;;
24751;SDS011;27246;52.376;4.628;2022-12-24T19:14:48;32.17;;;14.57;;
24751;SDS011;27246;52.376;4.628;2022-12-24T19:19:50;34.95;;;14.82;;
24751;SDS011;27246;52.376;4.628;2022-12-24T19:24:52;30.80;;;14.05;;
24751;SDS011;27246;52.376;4.628;2022-12-24T19:29:53;34.22;;;16.33;;
24751;SDS011;27246;52.376;4.628;2022-12-24T19:34:55;32.88;;;14.15;;
24751;SDS011;27246;52.376;4.628;2022-12-24T19:39:57;34.13;;;16.48;;
24751;SDS011;27246;52.376;4.628;2022-12-24T19:44:59;36.83;;;16.80;;
24751;SDS011;27246;52.376;4.628;2022-12-24T19:50:03;31.35;;;15.57;;
24751;SDS011;27246;52.376;4.628;2022-12-24T19:55:06;33.92;;;15.18;;
24751;SDS011;27246;52.376;4.628;2022-12-24T20:00:09;32.15;;;14.80;;
24751;SDS011;27246;52.376;4.628;2022-12-24T20:05:14;31.23;;;17.42;;
24751;SDS011;27246;52.376;4.628;2022-12-24T20:10:18;36.60;;;18.70;;
24751;SDS011;27246;52.376;4.628;2022-12-24T20:15:21;38.03;;;18.10;;
24751;SDS011;27246;52.376;4.628;2022-12-24T20:20:25;33.65;;;18.55;;
24751;SDS011;27246;52.376;4.628;2022-12-24T20:25:26;40.15;;;18.73;;
24751;SDS011;27246;52.376;4.628;2022-12-24T20:30:34;37.75;;;17.42;;
24751;SDS011;27246;52.376;4.628;2022-12-24T20:35:36;33.63;;;17.77;;
24751;SDS011;27246;52.376;4.628;2022-12-24T20:40:42;29.45;;;15.75;;
24751;SDS011;27246;52.376;4.628;2022-12-24T20:45:48;40.87;;;17.70;;
24751;SDS011;27246;52.376;4.628;2022-12-24T20:50:51;32.30;;;16.75;;
24751;SDS011;27246;52.376;4.628;2022-12-24T20:55:53;39.22;;;18.73;;
24751;SDS011;27246;52.376;4.628;2022-12-24T21:00:55;33.08;;;18.00;;
24751;SDS011;27246;52.376;4.628;2022-12-24T21:05:58;32.90;;;17.63;;
24751;SDS011;27246;52.376;4.628;2022-12-24T21:11:01;34.60;;;16.52;;
24751;SDS011;27246;52.376;4.628;2022-12-24T21:21:23;35.55;;;17.02;;
24751;SDS011;27246;52.376;4.628;2022-12-24T21:26:25;29.15;;;14.90;;
24751;SDS011;27246;52.376;4.628;2022-12-24T21:31:27;33.20;;;15.73;;
24751;SDS011;27246;52.376;4.628;2022-12-24T21:36:29;26.65;;;14.23;;
24751;SDS011;27246;52.376;4.628;2022-12-24T21:41:31;34.13;;;15.90;;
24751;SDS011;27246;52.376;4.628;2022-12-24T21:46:33;32.97;;;16.13;;
24751;SDS011;27246;52.376;4.628;2022-12-24T21:51:36;32.97;;;17.48;;
24751;SDS011;27246;52.376;4.628;2022-12-24T21:56:40;29.52;;;16.13;;
24751;SDS011;27246;52.376;4.628;2022-12-24T22:02:01;30.70;;;17.33;;
24751;SDS011;27246;52.376;4.628;2022-12-24T22:07:04;29.75;;;16.60;;
24751;SDS011;27246;52.376;4.628;2022-12-24T22:12:28;27.92;;;15.55;;
24751;SDS011;27246;52.376;4.628;2022-12-24T22:17:31;28.33;;;13.70;;
24751;SDS011;27246;52.376;4.628;2022-12-24T22:22:33;27.42;;;15.48;;
24751;SDS011;27246;52.376;4.628;2022-12-24T22:27:35;27.23;;;14.45;;
24751;SDS011;27246;52.376;4.628;2022-12-24T22:32:37;29.40;;;15.23;;
24751;SDS011;27246;52.376;4.628;2022-12-24T22:37:39;34.97;;;15.02;;
24751;SDS011;27246;52.376;4.628;2022-12-24T22:42:41;30.83;;;16.42;;
24751;SDS011;27246;52.376;4.628;2022-12-24T22:47:43;31.38;;;14.85;;
24751;SDS011;27246;52.376;4.628;2022-12-24T22:52:45;27.60;;;13.40;;
24751;SDS011;27246;52.376;4.628;2022-12-24T22:57:47;27.10;;;14.13;;
24751;SDS011;27246;52.376;4.628;2022-12-24T23:02:49;28.08;;;13.20;;
24751;SDS011;27246;52.376;4.628;2022-12-24T23:07:51;34.70;;;13.02;;
24751;SDS011;27246;52.376;4.628;2022-12-24T23:12:53;33.15;;;13.63;;
24751;SDS011;27246;52.376;4.628;2022-12-24T23:18:15;27.98;;;11.98;;
24751;SDS011;27246;52.376;4.628;2022-12-24T23:23:17;22.88;;;10.63;;
24751;SDS011;27246;52.376;4.628;2022-12-24T23:28:19;26.30;;;11.73;;
24751;SDS011;27246;52.376;4.628;2022-12-24T23:33:21;22.85;;;10.75;;
24751;SDS011;27246;52.376;4.628;2022-12-24T23:38:23;24.17;;;10.98;;
24751;SDS011;27246;52.376;4.628;2022-12-24T23:43:26;28.67;;;11.30;;
24751;SDS011;27246;52.376;4.628;2022-12-24T23:48:28;24.23;;;11.73;;
24751;SDS011;27246;52.376;4.628;2022-12-24T23:53:30;27.05;;;12.20;;
24751;SDS011;27246;52.376;4.628;2022-12-24T23:58:32;27.23;;;11.43;;
